createdAt,value
2019-03-21T00:00:41.551Z,1.08
2019-03-21T00:03:09.839Z,1.06
2019-03-21T00:05:38.093Z,0.94
2019-03-21T00:08:07.420Z,0.91
2019-03-21T00:10:38.994Z,0.91
2019-03-21T00:13:07.348Z,0.89
2019-03-21T00:15:47.632Z,0.80
2019-03-21T00:18:16.533Z,0.78
2019-03-21T00:20:44.874Z,0.80
2019-03-21T00:23:13.248Z,0.76
2019-03-21T00:25:41.607Z,0.74
2019-03-21T00:28:09.961Z,0.72
2019-03-21T00:30:38.352Z,0.73
2019-03-21T00:33:06.607Z,0.69
2019-03-21T00:35:35.019Z,0.72
2019-03-21T00:38:03.308Z,0.71
2019-03-21T00:40:37.494Z,0.72
2019-03-21T00:43:08.117Z,0.71
2019-03-21T00:45:36.427Z,0.69
2019-03-21T00:48:07.258Z,0.58
2019-03-21T00:50:35.618Z,0.59
2019-03-21T00:53:05.510Z,0.57
2019-03-21T00:55:45.992Z,0.54
2019-03-21T00:58:14.314Z,0.48
2019-03-21T01:00:45.656Z,0.39
2019-03-21T01:03:14.420Z,0.29
2019-03-21T01:05:43.068Z,0.24
2019-03-21T01:08:11.405Z,0.20
2019-03-21T01:10:39.778Z,0.17
2019-03-21T01:13:08.054Z,0.18
2019-03-21T01:15:38.664Z,0.18
2019-03-21T01:18:06.900Z,0.25
2019-03-21T01:20:35.245Z,0.16
2019-03-21T01:23:03.634Z,0.08
2019-03-21T01:25:38.045Z,0.05
2019-03-21T01:28:06.376Z,0.05
2019-03-21T01:30:36.316Z,0.02
2019-03-21T01:33:04.672Z,-0.05
2019-03-21T01:35:32.963Z,-0.07
2019-03-21T01:38:01.292Z,-0.08
2019-03-21T01:40:41.015Z,-0.03
2019-03-21T01:43:09.390Z,-0.01
2019-03-21T01:45:37.723Z,0.00
2019-03-21T01:48:06.043Z,-0.07
2019-03-21T01:50:39.406Z,-0.11
2019-03-21T01:53:07.689Z,-0.08
2019-03-21T01:55:36.037Z,-0.01
2019-03-21T01:58:04.634Z,0.01
2019-03-21T02:00:36.266Z,-0.01
2019-03-21T02:03:05.073Z,-0.02
2019-03-21T02:05:38.392Z,-0.04
2019-03-21T02:08:06.743Z,-0.09
2019-03-21T02:10:35.877Z,-0.17
2019-03-21T02:13:04.234Z,-0.30
2019-03-21T02:15:32.602Z,-0.41
2019-03-21T02:18:00.857Z,-0.38
2019-03-21T02:20:29.224Z,-0.34
2019-03-21T02:22:57.511Z,-0.31
2019-03-21T02:25:31.990Z,-0.23
2019-03-21T02:28:00.286Z,-0.20
2019-03-21T02:30:31.557Z,-0.13
2019-03-21T02:33:03.450Z,-0.12
2019-03-21T02:35:31.794Z,-0.08
2019-03-21T02:38:02.683Z,-0.09
2019-03-21T02:40:31.041Z,-0.09
2019-03-21T02:43:01.810Z,-0.15
2019-03-21T02:45:30.187Z,-0.14
2019-03-21T02:48:00.195Z,-9.94
2019-03-21T02:50:42.371Z,-0.23
2019-03-21T02:53:10.641Z,-0.29
2019-03-21T02:55:39.069Z,-0.37
2019-03-21T02:58:07.341Z,-0.42
2019-03-21T03:00:41.981Z,-0.40
2019-03-21T03:03:10.348Z,-0.40
2019-03-21T03:05:38.947Z,-0.40
2019-03-21T03:08:08.582Z,-0.41
2019-03-21T03:10:57.868Z,-0.50
2019-03-21T03:13:26.211Z,-0.65
2019-03-21T03:15:54.612Z,-0.74
2019-03-21T03:18:24.342Z,-0.74
2019-03-21T03:20:52.719Z,-0.74
2019-03-21T03:23:24.123Z,-0.80
2019-03-21T03:25:52.419Z,-0.79
2019-03-21T03:28:28.654Z,-0.76
2019-03-21T03:30:58.288Z,-0.74
2019-03-21T03:33:28.386Z,-0.79
2019-03-21T03:35:56.761Z,-0.72
2019-03-21T03:38:25.115Z,-0.66
2019-03-21T03:41:04.811Z,-0.65
2019-03-21T03:43:33.068Z,-0.69
2019-03-21T03:46:01.491Z,-0.69
2019-03-21T03:48:30.790Z,-0.66
2019-03-21T03:51:01.757Z,-0.64
2019-03-21T03:53:30.044Z,-0.63
2019-03-21T03:55:58.379Z,-0.61
2019-03-21T03:58:35.521Z,-0.61
2019-03-21T04:01:03.911Z,-0.62
2019-03-21T04:03:32.218Z,-0.61
2019-03-21T04:06:02.163Z,-0.63
2019-03-21T04:08:30.454Z,-0.65
2019-03-21T04:11:01.019Z,-0.69
2019-03-21T04:13:28.939Z,-0.69
2019-03-21T04:15:57.281Z,-0.69
2019-03-21T04:18:25.948Z,-0.69
2019-03-21T04:21:03.473Z,-0.75
2019-03-21T04:23:31.798Z,-0.78
2019-03-21T04:26:14.821Z,-0.84
2019-03-21T04:28:43.588Z,-0.85
2019-03-21T04:31:13.974Z,-0.90
2019-03-21T04:33:44.413Z,-0.92
2019-03-21T04:36:12.776Z,-0.95
2019-03-21T04:38:41.143Z,-0.96
2019-03-21T04:41:09.501Z,-1.00
2019-03-21T04:43:37.847Z,-1.02
2019-03-21T04:46:06.177Z,-2.79
2019-03-21T04:48:34.500Z,-0.95
2019-03-21T04:51:02.855Z,-0.93
2019-03-21T04:53:31.191Z,-0.93
2019-03-21T04:55:59.499Z,-0.91
2019-03-21T04:58:27.780Z,-0.88
2019-03-21T05:00:57.764Z,-0.87
2019-03-21T05:03:28.597Z,-4.77
2019-03-21T05:05:58.960Z,-0.89
2019-03-21T05:08:27.369Z,-0.95
2019-03-21T05:10:55.675Z,-0.94
2019-03-21T05:13:23.969Z,-0.98
2019-03-21T05:15:53.827Z,-1.07
2019-03-21T05:18:27.990Z,-1.17
2019-03-21T05:20:56.300Z,-1.20
2019-03-21T05:23:24.564Z,-1.15
2019-03-21T05:25:52.964Z,-1.08
2019-03-21T05:28:21.276Z,-1.05
2019-03-21T05:31:14.237Z,-1.03
2019-03-21T05:33:42.546Z,-1.05
2019-03-21T05:36:10.939Z,-1.00
2019-03-21T05:38:39.233Z,-0.92
2019-03-21T05:41:07.519Z,-0.88
2019-03-21T05:43:41.994Z,-0.91
2019-03-21T05:46:10.246Z,-0.89
2019-03-21T05:48:40.157Z,-0.87
2019-03-21T05:51:08.440Z,-0.87
2019-03-21T05:53:36.706Z,-0.84
2019-03-21T05:56:04.975Z,-0.80
2019-03-21T05:58:33.282Z,-0.77
2019-03-21T06:01:04.942Z,-0.70
2019-03-21T06:03:52.875Z,-0.64
2019-03-21T06:06:45.467Z,-0.57
2019-03-21T06:09:21.689Z,-0.52
2019-03-21T06:11:53.245Z,-0.51
2019-03-21T06:14:21.685Z,-0.47
2019-03-21T06:16:49.987Z,-0.45
2019-03-21T06:19:43.781Z,-0.34
2019-03-21T06:22:18.250Z,-0.22
2019-03-21T06:24:52.705Z,-0.05
2019-03-21T06:27:30.686Z,0.06
2019-03-21T06:29:59.181Z,0.18
2019-03-21T06:32:28.023Z,0.27
2019-03-21T06:34:57.131Z,0.36
2019-03-21T06:37:28.485Z,0.43
2019-03-21T06:39:56.277Z,0.50
2019-03-21T06:42:24.643Z,0.60
2019-03-21T06:44:56.102Z,0.69
2019-03-21T06:47:24.502Z,0.77
2019-03-21T06:49:52.853Z,0.84
2019-03-21T06:52:21.103Z,0.87
2019-03-21T06:54:49.466Z,0.93
2019-03-21T06:57:17.799Z,0.98
2019-03-21T06:59:46.067Z,-1.55
2019-03-21T07:02:14.339Z,1.13
2019-03-21T07:04:42.642Z,1.21
2019-03-21T07:07:10.896Z,1.33
2019-03-21T07:09:39.306Z,1.46
2019-03-21T07:12:07.598Z,1.58
2019-03-21T07:14:35.904Z,-1.07
2019-03-21T07:17:04.175Z,1.82
2019-03-21T07:19:32.468Z,1.95
2019-03-21T07:22:00.797Z,2.13
2019-03-21T07:24:29.190Z,2.34
2019-03-21T07:26:57.614Z,2.55
2019-03-21T07:29:25.956Z,2.75
2019-03-21T07:31:54.234Z,2.96
2019-03-21T07:34:22.504Z,3.26
2019-03-21T07:36:50.905Z,3.53
2019-03-21T07:39:19.171Z,3.86
2019-03-21T07:41:47.465Z,4.17
2019-03-21T07:44:15.741Z,4.31
2019-03-21T07:46:43.992Z,4.48
2019-03-21T07:49:12.312Z,4.68
2019-03-21T07:51:40.537Z,4.83
2019-03-21T07:54:08.853Z,5.03
2019-03-21T07:56:37.135Z,5.23
2019-03-21T07:59:05.535Z,5.44
2019-03-21T08:01:33.801Z,5.63
2019-03-21T08:04:03.183Z,5.86
2019-03-21T08:06:31.527Z,5.96
2019-03-21T08:08:59.789Z,6.11
2019-03-21T08:11:28.166Z,6.17
2019-03-21T08:13:56.403Z,6.37
2019-03-21T08:16:24.706Z,6.64
2019-03-21T08:18:53.030Z,6.87
2019-03-21T08:21:21.318Z,7.16
2019-03-21T08:23:49.646Z,7.50
2019-03-21T08:26:17.953Z,7.80
2019-03-21T08:28:46.253Z,8.03
2019-03-21T08:31:14.870Z,8.32
2019-03-21T08:33:43.367Z,8.53
2019-03-21T08:36:11.748Z,8.65
2019-03-21T08:38:40.191Z,8.74
2019-03-21T08:41:08.520Z,8.91
2019-03-21T08:43:36.938Z,9.06
2019-03-21T08:46:05.262Z,9.20
2019-03-21T08:48:33.707Z,9.33
2019-03-21T08:51:08.253Z,9.55
2019-03-21T08:53:32.340Z,9.84
2019-03-21T08:56:00.699Z,10.10
2019-03-21T08:58:29.246Z,10.22
2019-03-21T09:00:57.626Z,10.40
2019-03-21T09:03:25.955Z,10.40
2019-03-21T09:05:54.271Z,10.42
2019-03-21T09:08:22.558Z,10.29
2019-03-21T09:10:50.869Z,10.41
2019-03-21T09:13:19.336Z,6.51
2019-03-21T09:15:47.718Z,10.33
2019-03-21T09:18:16.158Z,10.41
2019-03-21T09:20:44.607Z,10.60
2019-03-21T09:23:13.045Z,10.81
2019-03-21T09:25:44.002Z,11.04
2019-03-21T09:28:14.205Z,11.30
2019-03-21T09:30:42.632Z,11.40
2019-03-21T09:33:11.061Z,11.58
2019-03-21T09:35:39.387Z,11.74
2019-03-21T09:38:07.671Z,11.81
2019-03-21T09:40:36.093Z,11.92
2019-03-21T09:43:04.384Z,11.84
2019-03-21T09:45:32.787Z,11.95
2019-03-21T09:48:01.053Z,10.98
2019-03-21T09:50:29.986Z,12.22
2019-03-21T09:52:58.256Z,12.27
2019-03-21T09:55:26.559Z,12.37
2019-03-21T09:57:54.827Z,12.52
2019-03-21T10:00:31.656Z,12.70
2019-03-21T10:02:59.937Z,12.76
2019-03-21T10:05:28.203Z,12.81
2019-03-21T10:07:56.530Z,12.85
2019-03-21T10:10:32.067Z,12.78
2019-03-21T10:13:00.440Z,12.79
2019-03-21T10:15:28.710Z,12.64
2019-03-21T10:17:57.071Z,12.58
2019-03-21T10:20:25.341Z,12.70
2019-03-21T10:22:53.603Z,12.82
2019-03-21T10:25:21.994Z,13.03
2019-03-21T10:27:50.437Z,13.20
2019-03-21T10:30:35.778Z,13.49
2019-03-21T10:33:05.420Z,13.50
2019-03-21T10:35:33.674Z,13.72
2019-03-21T10:38:02.104Z,13.88
2019-03-21T10:40:30.367Z,13.97
2019-03-21T10:42:58.644Z,14.07
2019-03-21T10:45:26.929Z,14.15
2019-03-21T10:47:55.263Z,13.85
2019-03-21T10:50:38.114Z,13.97
2019-03-21T10:53:06.926Z,13.83
2019-03-21T10:55:35.268Z,13.85
2019-03-21T10:58:04.004Z,13.82
2019-03-21T11:00:32.274Z,13.68
2019-03-21T11:03:00.600Z,13.72
2019-03-21T11:05:28.908Z,13.97
2019-03-21T11:07:57.189Z,14.15
2019-03-21T11:10:25.624Z,14.19
2019-03-21T11:12:53.920Z,14.17
2019-03-21T11:15:22.185Z,14.23
2019-03-21T11:17:50.466Z,14.28
2019-03-21T11:20:28.004Z,14.50
2019-03-21T11:22:56.270Z,14.46
2019-03-21T11:25:24.571Z,14.55
2019-03-21T11:27:52.836Z,14.59
2019-03-21T11:30:29.490Z,14.52
2019-03-21T11:32:57.951Z,14.54
2019-03-21T11:35:26.311Z,14.72
2019-03-21T11:37:54.726Z,14.92
2019-03-21T11:40:23.174Z,15.13
2019-03-21T11:42:51.463Z,15.30
2019-03-21T11:45:19.855Z,15.55
2019-03-21T11:47:48.223Z,14.97
2019-03-21T11:50:16.584Z,15.76
2019-03-21T11:52:45.148Z,12.42
2019-03-21T11:55:13.608Z,15.88
2019-03-21T11:57:42.029Z,15.79
2019-03-21T12:00:12.231Z,15.79
2019-03-21T12:02:40.541Z,15.71
2019-03-21T12:05:08.947Z,15.68
2019-03-21T12:07:37.325Z,15.74
2019-03-21T12:10:07.400Z,15.68
2019-03-21T12:12:35.800Z,15.69
2019-03-21T12:15:09.729Z,15.56
2019-03-21T12:17:38.548Z,15.59
2019-03-21T12:20:09.628Z,15.51
2019-03-21T12:22:37.960Z,15.35
2019-03-21T12:25:07.165Z,15.42
2019-03-21T12:27:35.583Z,15.47
2019-03-21T12:30:06.324Z,15.50
2019-03-21T12:32:34.811Z,15.37
2019-03-21T12:35:03.503Z,15.35
2019-03-21T12:37:31.880Z,15.35
2019-03-21T12:40:00.333Z,15.45
2019-03-21T12:42:28.761Z,15.29
2019-03-21T12:44:57.110Z,15.32
2019-03-21T12:47:31.166Z,15.30
2019-03-21T12:49:55.444Z,15.30
2019-03-21T12:52:23.713Z,15.42
2019-03-21T12:54:51.988Z,15.64
2019-03-21T12:57:20.343Z,15.78
2019-03-21T12:59:48.711Z,15.94
2019-03-21T13:02:16.988Z,16.06
2019-03-21T13:04:45.275Z,16.05
2019-03-21T13:07:14.070Z,15.82
2019-03-21T13:09:42.508Z,15.59
2019-03-21T13:12:10.844Z,15.22
2019-03-21T13:14:39.276Z,15.14
2019-03-21T13:17:07.738Z,15.26
2019-03-21T13:19:36.007Z,15.24
2019-03-21T13:22:04.363Z,15.26
2019-03-21T13:24:32.715Z,15.43
2019-03-21T13:27:01.141Z,15.47
2019-03-21T13:29:29.489Z,15.53
2019-03-21T13:31:57.784Z,15.39
2019-03-21T13:34:26.035Z,15.58
2019-03-21T13:36:54.460Z,15.16
2019-03-21T13:39:22.835Z,15.18
2019-03-21T13:41:51.217Z,15.25
2019-03-21T13:44:19.706Z,14.96
2019-03-21T13:46:48.079Z,15.12
2019-03-21T13:49:16.433Z,15.07
2019-03-21T13:51:44.709Z,15.05
2019-03-21T13:54:12.959Z,15.00
2019-03-21T13:56:41.233Z,14.90
2019-03-21T13:59:09.537Z,14.69
2019-03-21T14:01:37.821Z,14.63
2019-03-21T14:04:06.142Z,14.71
2019-03-21T14:06:34.439Z,14.71
2019-03-21T14:09:02.779Z,14.66
2019-03-21T14:11:31.126Z,14.58
2019-03-21T14:13:59.431Z,14.49
2019-03-21T14:16:27.783Z,14.40
2019-03-21T14:18:56.117Z,13.95
2019-03-21T14:21:24.397Z,14.31
2019-03-21T14:23:52.657Z,14.25
2019-03-21T14:26:20.941Z,14.22
2019-03-21T14:28:49.205Z,14.17
2019-03-21T14:31:17.504Z,14.16
2019-03-21T14:33:45.853Z,14.12
2019-03-21T14:36:14.168Z,14.13
2019-03-21T14:38:42.460Z,14.06
2019-03-21T14:41:10.826Z,14.09
2019-03-21T14:43:39.197Z,14.13
2019-03-21T14:46:07.511Z,14.12
2019-03-21T14:48:36.128Z,14.10
2019-03-21T14:51:06.233Z,14.05
2019-03-21T14:53:34.724Z,14.01
2019-03-21T14:56:03.205Z,14.03
2019-03-21T14:58:31.677Z,14.02
2019-03-21T15:01:01.612Z,14.04
2019-03-21T15:03:30.055Z,14.01
2019-03-21T15:05:58.657Z,13.95
2019-03-21T15:08:26.990Z,13.94
2019-03-21T15:10:55.359Z,13.92
2019-03-21T15:13:23.902Z,9.92
2019-03-21T15:15:52.360Z,13.92
2019-03-21T15:18:20.784Z,13.90
2019-03-21T15:20:49.247Z,13.88
2019-03-21T15:23:17.732Z,13.86
2019-03-21T15:25:46.172Z,13.84
2019-03-21T15:28:14.546Z,13.82
2019-03-21T15:30:42.896Z,13.82
2019-03-21T15:33:11.529Z,13.79
2019-03-21T15:35:39.982Z,13.76
2019-03-21T15:38:08.329Z,13.72
2019-03-21T15:40:36.693Z,13.68
2019-03-21T15:43:04.985Z,13.67
2019-03-21T15:45:33.261Z,13.68
2019-03-21T15:48:01.570Z,13.66
2019-03-21T15:50:38.124Z,13.61
2019-03-21T15:53:06.905Z,13.61
2019-03-21T15:55:35.182Z,13.58
2019-03-21T15:58:03.530Z,13.56
2019-03-21T16:00:44.441Z,13.56
2019-03-21T16:03:12.920Z,13.54
2019-03-21T16:05:41.219Z,13.53
2019-03-21T16:08:09.640Z,13.49
2019-03-21T16:10:38.011Z,13.45
2019-03-21T16:13:06.278Z,13.38
2019-03-21T16:15:34.552Z,13.35
2019-03-21T16:18:02.875Z,13.30
2019-03-21T16:20:31.137Z,12.83
2019-03-21T16:22:59.405Z,13.21
2019-03-21T16:25:27.676Z,13.20
2019-03-21T16:27:55.949Z,13.14
2019-03-21T16:30:24.271Z,13.13
2019-03-21T16:32:52.547Z,13.11
2019-03-21T16:35:20.830Z,13.09
2019-03-21T16:37:49.085Z,13.06
2019-03-21T16:40:17.517Z,13.02
2019-03-21T16:42:54.908Z,12.99
2019-03-21T16:45:23.258Z,12.94
2019-03-21T16:47:51.512Z,12.90
2019-03-21T16:50:19.778Z,12.87
2019-03-21T16:52:48.066Z,12.84
2019-03-21T16:55:16.318Z,12.78
2019-03-21T16:57:44.663Z,12.74
2019-03-21T17:00:20.033Z,12.66
2019-03-21T17:02:48.288Z,12.57
2019-03-21T17:05:18.628Z,12.48
2019-03-21T17:07:46.891Z,12.43
2019-03-21T17:10:16.490Z,12.35
2019-03-21T17:12:44.901Z,12.29
2019-03-21T17:15:13.519Z,12.23
2019-03-21T17:17:41.827Z,12.09
2019-03-21T17:20:11.497Z,11.97
2019-03-21T17:22:39.753Z,11.92
2019-03-21T17:25:08.212Z,11.82
2019-03-21T17:27:36.465Z,11.67
2019-03-21T17:30:10.351Z,11.54
2019-03-21T17:32:38.605Z,11.49
2019-03-21T17:35:06.893Z,11.40
2019-03-21T17:37:35.222Z,11.28
2019-03-21T17:40:05.449Z,11.17
2019-03-21T17:42:33.754Z,11.03
2019-03-21T17:45:02.022Z,10.90
2019-03-21T17:47:30.266Z,10.80
2019-03-21T17:49:58.539Z,10.63
2019-03-21T17:52:26.797Z,10.53
2019-03-21T17:54:55.070Z,10.44
2019-03-21T17:57:33.908Z,10.38
2019-03-21T17:59:53.385Z,10.28
2019-03-21T18:02:21.657Z,10.17
2019-03-21T18:04:50.009Z,10.10
2019-03-21T18:07:18.329Z,10.06
2019-03-21T18:09:46.579Z,10.00
2019-03-21T18:12:16.640Z,9.95
2019-03-21T18:14:44.879Z,9.90
2019-03-21T18:17:13.234Z,9.82
2019-03-21T18:19:41.503Z,9.69
2019-03-21T18:22:09.777Z,9.61
2019-03-21T18:24:38.242Z,9.55
2019-03-21T18:27:06.514Z,9.52
2019-03-21T18:29:34.879Z,9.47
2019-03-21T18:32:03.301Z,9.43
2019-03-21T18:34:31.619Z,9.39
2019-03-21T18:36:59.903Z,9.35
2019-03-21T18:39:28.154Z,9.33
2019-03-21T18:41:56.406Z,9.26
2019-03-21T18:44:24.673Z,9.14
2019-03-21T18:46:52.921Z,9.03
2019-03-21T18:49:21.177Z,8.95
2019-03-21T18:51:49.435Z,8.89
2019-03-21T18:54:17.707Z,8.82
2019-03-21T18:56:45.984Z,8.76
2019-03-21T18:59:14.240Z,8.66
2019-03-21T19:01:42.514Z,8.62
2019-03-21T19:04:10.774Z,8.54
2019-03-21T19:06:39.027Z,8.51
2019-03-21T19:09:07.820Z,8.48
2019-03-21T19:11:36.088Z,8.45
2019-03-21T19:14:04.352Z,8.42
2019-03-21T19:16:32.614Z,8.40
2019-03-21T19:19:00.867Z,8.37
2019-03-21T19:21:29.120Z,8.34
2019-03-21T19:23:57.382Z,8.33
2019-03-21T19:26:25.721Z,8.31
2019-03-21T19:28:53.970Z,8.28
2019-03-21T19:31:22.253Z,8.24
2019-03-21T19:33:50.511Z,8.16
2019-03-21T19:36:18.793Z,8.06
2019-03-21T19:38:47.066Z,7.97
2019-03-21T19:41:15.334Z,7.92
2019-03-21T19:43:43.584Z,7.87
2019-03-21T19:46:11.869Z,7.82
2019-03-21T19:48:49.782Z,7.77
2019-03-21T19:51:10.153Z,7.71
2019-03-21T19:53:38.412Z,7.64
2019-03-21T19:56:08.707Z,7.56
2019-03-21T19:58:36.676Z,7.43
2019-03-21T20:01:04.941Z,7.39
2019-03-21T20:03:33.227Z,7.35
2019-03-21T20:06:01.485Z,7.33
2019-03-21T20:08:29.753Z,7.27
2019-03-21T20:10:58.029Z,7.21
2019-03-21T20:13:26.272Z,7.16
2019-03-21T20:15:54.532Z,7.11
2019-03-21T20:18:22.804Z,7.06
2019-03-21T20:20:51.068Z,6.89
2019-03-21T20:23:19.355Z,6.76
2019-03-21T20:25:47.628Z,6.65
2019-03-21T20:30:53.831Z,6.50
2019-03-21T20:33:22.101Z,6.46
2019-03-21T20:35:50.362Z,6.51
2019-03-21T20:38:18.631Z,6.50
2019-03-21T20:40:46.898Z,6.44
2019-03-21T20:43:15.149Z,6.39
2019-03-21T20:45:43.419Z,6.34
2019-03-21T20:48:11.674Z,6.32
2019-03-21T20:50:39.942Z,6.31
2019-03-21T20:53:08.214Z,6.36
2019-03-21T20:55:36.490Z,6.35
2019-03-21T20:58:04.782Z,6.34
2019-03-21T21:00:33.034Z,6.28
2019-03-21T21:03:01.330Z,6.24
2019-03-21T21:05:29.593Z,6.21
2019-03-21T21:07:57.848Z,6.16
2019-03-21T21:10:26.187Z,6.10
2019-03-21T21:12:54.448Z,6.03
2019-03-21T21:15:22.718Z,5.99
2019-03-21T21:17:50.974Z,5.93
2019-03-21T21:20:19.266Z,5.82
2019-03-21T21:22:47.515Z,5.66
2019-03-21T21:25:15.783Z,5.54
2019-03-21T21:27:49.253Z,5.47
2019-03-21T21:30:19.193Z,5.41
2019-03-21T21:32:47.465Z,5.43
2019-03-21T21:35:15.745Z,5.44
2019-03-21T21:37:44.014Z,5.44
2019-03-21T21:40:12.911Z,5.44
2019-03-21T21:42:41.166Z,5.46
2019-03-21T21:45:11.938Z,5.44
2019-03-21T21:47:40.195Z,5.44
2019-03-21T21:50:13.539Z,5.43
2019-03-21T21:52:42.444Z,5.38
2019-03-21T21:55:10.964Z,5.37
2019-03-21T21:57:39.235Z,5.34
2019-03-21T22:00:10.537Z,5.28
2019-03-21T22:02:38.800Z,5.24
2019-03-21T22:05:07.438Z,5.17
2019-03-21T22:07:35.726Z,5.12
2019-03-21T22:10:06.026Z,5.12
2019-03-21T22:12:34.483Z,5.07
2019-03-21T22:15:03.026Z,5.03
2019-03-21T22:17:31.304Z,5.02
2019-03-21T22:19:59.566Z,5.00
2019-03-21T22:22:27.832Z,4.98
2019-03-21T22:24:56.103Z,4.96
2019-03-21T22:27:24.375Z,4.93
2019-03-21T22:29:52.645Z,4.85
2019-03-21T22:32:20.916Z,4.77
2019-03-21T22:34:49.163Z,4.75
2019-03-21T22:37:17.437Z,4.68
2019-03-21T22:39:45.718Z,4.67
2019-03-21T22:42:13.970Z,4.62
2019-03-21T22:44:42.280Z,4.58
2019-03-21T22:47:10.539Z,4.54
2019-03-21T22:49:38.806Z,4.49
2019-03-21T22:52:07.071Z,4.48
2019-03-21T22:54:35.335Z,4.44
2019-03-21T22:57:03.598Z,4.38
2019-03-21T22:59:31.861Z,4.34
2019-03-21T23:02:00.116Z,4.32
2019-03-21T23:04:28.388Z,4.26
2019-03-21T23:06:56.657Z,4.18
2019-03-21T23:09:24.952Z,4.13
2019-03-21T23:11:53.208Z,4.14
2019-03-21T23:14:21.473Z,4.10
2019-03-21T23:16:49.754Z,3.98
2019-03-21T23:19:18.022Z,3.88
2019-03-21T23:21:46.281Z,3.83
2019-03-21T23:24:14.572Z,3.77
2019-03-21T23:26:52.419Z,3.74
2019-03-21T23:29:12.851Z,3.69
2019-03-21T23:31:41.116Z,3.68
2019-03-21T23:34:09.450Z,3.69
2019-03-21T23:36:37.720Z,3.67
2019-03-21T23:39:06.464Z,3.68
2019-03-21T23:41:34.726Z,3.66
2019-03-21T23:44:02.997Z,3.64
2019-03-21T23:46:31.287Z,3.69
2019-03-21T23:48:59.550Z,3.67
2019-03-21T23:51:27.830Z,3.64
2019-03-21T23:53:56.087Z,3.56
2019-03-21T23:56:24.354Z,3.57
2019-03-21T23:58:52.623Z,3.58
